Time;durP1;ratioP1;P1;durP2;ratioP2;P2;SDS_P1;SDS_P2;PMS_P1;PMS_P2;Temp;Humidity;BMP_temperature;BMP_pressure;BME280_temperature;BME280_humidity;BME280_pressure;Samples;Min_cycle;Max_cycle;Signal;HPM_P1;HPM_P2
2022/10/02 00:02:06;;;;;;;10.88;2.60;;;15.00;99.90;;;;;;5056084;28;20025;-91
2022/10/02 00:04:40;;;;;;;11.77;2.78;;;15.00;99.90;;;;;;5039086;28;20045;-90
2022/10/02 00:07:09;;;;;;;14.35;3.20;;;15.00;99.90;;;;;;5054865;28;20104;-91
2022/10/02 00:09:52;;;;;;;10.65;2.60;;;15.00;99.90;;;;;;5054571;28;20112;-91
2022/10/02 00:12:22;;;;;;;13.95;2.25;;;14.90;99.90;;;;;;5054245;28;20025;-92
2022/10/02 00:14:51;;;;;;;8.40;1.80;;;14.90;99.90;;;;;;5054386;28;20083;-92
2022/10/02 00:17:21;;;;;;;11.07;2.30;;;14.90;99.90;;;;;;5054629;28;20032;-94
2022/10/02 00:19:52;;;;;;;12.55;2.40;;;14.80;99.90;;;;;;5054788;28;20025;-93
2022/10/02 00:22:33;;;;;;;8.75;1.75;;;14.80;99.90;;;;;;5038246;28;20052;-93
2022/10/02 00:25:22;;;;;;;12.73;2.15;;;14.80;99.90;;;;;;5054957;28;20028;-92
2022/10/02 00:28:10;;;;;;;10.60;2.00;;;14.80;99.90;;;;;;5054953;28;20092;-93
2022/10/02 00:30:58;;;;;;;9.13;1.80;;;14.80;99.90;;;;;;5054422;28;20029;-92
2022/10/02 00:33:42;;;;;;;7.78;1.80;;;14.80;99.90;;;;;;5054337;28;20025;-92
2022/10/02 00:36:21;;;;;;;5.75;1.40;;;14.80;99.90;;;;;;5054582;28;20037;-91
2022/10/02 00:38:58;;;;;;;5.72;1.40;;;14.70;99.90;;;;;;5055540;28;20036;-93
2022/10/02 00:41:41;;;;;;;6.30;1.42;;;14.70;99.90;;;;;;5055480;28;20029;-92
2022/10/02 00:44:30;;;;;;;8.55;1.92;;;14.70;99.90;;;;;;5054471;28;20111;-92
2022/10/02 00:47:18;;;;;;;9.88;1.65;;;14.70;99.90;;;;;;5035998;28;20086;-91
2022/10/02 00:50:00;;;;;;;9.57;1.60;;;14.60;99.90;;;;;;5054269;28;20032;-92
2022/10/02 00:52:25;;;;;;;9.50;1.58;;;14.60;99.90;;;;;;5053854;28;20542;-91
2022/10/02 00:54:57;;;;;;;7.40;1.63;;;14.60;99.90;;;;;;5053875;28;20037;-91
2022/10/02 00:57:45;;;;;;;8.52;1.58;;;14.50;99.90;;;;;;5053961;28;20033;-91
2022/10/02 01:00:15;;;;;;;9.65;1.88;;;14.50;99.90;;;;;;5053508;28;20021;-90
2022/10/02 01:02:49;;;;;;;13.80;2.80;;;14.40;99.90;;;;;;5053822;28;20017;-89
2022/10/02 01:05:15;;;;;;;8.85;1.73;;;14.40;99.90;;;;;;5053384;28;20057;-91
2022/10/02 01:07:45;;;;;;;13.93;2.05;;;14.40;99.90;;;;;;5036901;28;20063;-91
2022/10/02 01:10:12;;;;;;;12.98;2.17;;;14.40;99.90;;;;;;5053890;28;20091;-91
2022/10/02 01:12:39;;;;;;;10.40;2.75;;;14.40;99.90;;;;;;5054020;28;20029;-90
2022/10/02 01:15:17;;;;;;;9.20;2.47;;;14.30;99.90;;;;;;5037272;28;20167;-90
2022/10/02 01:17:44;;;;;;;11.93;2.80;;;14.30;99.90;;;;;;5053612;28;20084;-90
2022/10/02 01:20:16;;;;;;;17.42;3.22;;;14.30;99.90;;;;;;5054668;28;20036;-90
2022/10/02 01:22:57;;;;;;;17.95;3.95;;;14.30;99.90;;;;;;5053018;28;20021;-90
2022/10/02 01:25:23;;;;;;;;;;;14.30;99.90;;;;;;5054109;28;20087;-92
2022/10/02 01:27:51;;;;;;;20.95;4.95;;;14.30;99.90;;;;;;5053344;28;19905;-91
2022/10/02 01:30:18;;;;;;;20.63;5.93;;;14.30;99.90;;;;;;5053493;28;20027;-91
2022/10/02 01:32:55;;;;;;;16.23;4.82;;;14.30;99.90;;;;;;5036587;28;20119;-91
2022/10/02 01:35:25;;;;;;;17.25;6.45;;;14.30;99.90;;;;;;5059466;28;20029;-90
2022/10/02 01:37:53;;;;;;;21.90;6.57;;;14.30;99.90;;;;;;5056585;28;20377;-90
2022/10/02 01:40:31;;;;;;;22.50;7.00;;;14.30;99.90;;;;;;5053894;28;20261;-91
2022/10/02 01:43:36;;;;;;;22.48;6.35;;;14.30;99.90;;;;;;5036632;28;20119;-91
2022/10/02 01:46:17;;;;;;;20.27;7.47;;;14.30;99.90;;;;;;5053514;28;20527;-91
2022/10/02 01:49:07;;;;;;;21.33;7.55;;;14.30;99.90;;;;;;5053287;28;20031;-91
2022/10/02 01:52:19;;;;;;;20.38;7.28;;;14.40;99.90;;;;;;5053442;28;20024;-91
2022/10/02 01:54:59;;;;;;;;;;;14.40;99.90;;;;;;5034826;28;20048;-92
2022/10/02 01:57:46;;;;;;;19.88;6.88;;;14.40;99.90;;;;;;5053619;28;19908;-90
2022/10/02 02:00:17;;;;;;;21.73;7.15;;;14.40;99.90;;;;;;5053731;28;20469;-90
2022/10/02 02:03:04;;;;;;;17.77;6.93;;;14.40;99.90;;;;;;5053136;28;20017;-90
2022/10/02 02:05:42;;;;;;;23.20;8.38;;;14.40;99.90;;;;;;5053026;28;20072;-90
2022/10/02 02:08:30;;;;;;;21.15;7.80;;;14.50;99.90;;;;;;5053388;28;20029;-91
2022/10/02 02:11:14;;;;;;;21.02;7.30;;;14.50;99.90;;;;;;5054741;28;20025;-93
2022/10/02 02:13:49;;;;;;;20.55;8.23;;;14.50;99.90;;;;;;5053253;28;20028;-92
2022/10/02 02:16:31;;;;;;;21.30;8.23;;;14.60;99.90;;;;;;5053132;28;20574;-92
2022/10/02 02:19:07;;;;;;;16.35;7.10;;;14.60;99.90;;;;;;5053175;28;20116;-93
2022/10/02 02:21:39;;;;;;;21.92;7.07;;;14.60;99.90;;;;;;5053425;28;20017;-93
2022/10/02 02:24:10;;;;;;;25.85;7.85;;;14.70;99.90;;;;;;5054377;28;20032;-94
2022/10/02 02:26:37;;;;;;;27.02;8.35;;;14.70;99.90;;;;;;5052883;28;20021;-92
2022/10/02 02:29:09;;;;;;;28.20;8.85;;;14.70;99.90;;;;;;5036513;28;20033;-93
2022/10/02 02:31:46;;;;;;;24.52;8.68;;;14.70;99.90;;;;;;5053144;28;20528;-92
2022/10/02 02:34:17;;;;;;;24.95;7.82;;;14.60;99.90;;;;;;5054621;28;20036;-93
2022/10/02 02:36:47;;;;;;;24.50;7.30;;;14.70;99.90;;;;;;5057298;28;20155;-92
2022/10/02 02:39:17;;;;;;;22.88;7.55;;;14.60;99.90;;;;;;5057041;28;20766;-94
2022/10/02 02:41:50;;;;;;;23.13;7.47;;;14.60;99.90;;;;;;5056830;28;20025;-91
2022/10/02 02:44:45;;;;;;;27.17;8.00;;;14.60;99.90;;;;;;5056901;28;20063;-92
2022/10/02 02:47:27;;;;;;;22.70;6.45;;;14.60;99.90;;;;;;5056940;28;20032;-93
2022/10/02 02:50:01;;;;;;;22.55;6.57;;;14.60;99.90;;;;;;5056583;28;20466;-92
2022/10/02 02:52:29;;;;;;;23.10;5.80;;;14.60;99.90;;;;;;5057998;28;20033;-92
2022/10/02 02:55:14;;;;;;;24.45;6.03;;;14.60;99.90;;;;;;5056099;28;20126;-92
2022/10/02 02:57:53;;;;;;;20.38;5.90;;;14.60;99.90;;;;;;5056480;28;20480;-92
2022/10/02 03:00:19;;;;;;;23.95;5.80;;;14.50;99.90;;;;;;5056333;28;20021;-91
2022/10/02 03:02:45;;;;;;;20.45;5.45;;;14.50;99.90;;;;;;5039768;28;20032;-92
2022/10/02 03:05:17;;;;;;;24.25;5.63;;;14.50;99.90;;;;;;5055873;28;20059;-91
2022/10/02 03:07:55;;;;;;;21.65;5.60;;;14.50;99.90;;;;;;5056729;28;20029;-92
2022/10/02 03:10:31;;;;;;;17.15;5.13;;;14.50;99.90;;;;;;5056633;28;20029;-92
2022/10/02 03:13:03;;;;;;;21.85;5.50;;;14.60;99.90;;;;;;5056113;28;20032;-91
2022/10/02 03:15:42;;;;;;;22.52;4.88;;;14.60;99.90;;;;;;5056208;28;20033;-92
2022/10/02 03:18:39;;;;;;;20.42;4.90;;;14.60;99.90;;;;;;5057322;28;20055;-93
2022/10/02 03:21:12;;;;;;;17.88;5.30;;;14.60;99.90;;;;;;5047878;28;20470;-93
2022/10/02 03:23:58;;;;;;;22.33;4.63;;;14.50;99.90;;;;;;5055877;28;20108;-93
2022/10/02 03:26:33;;;;;;;18.30;4.90;;;14.50;99.90;;;;;;5055922;28;20055;-93
2022/10/02 03:29:03;;;;;;;22.02;4.55;;;14.50;99.90;;;;;;5055829;28;20021;-93
2022/10/02 03:31:31;;;;;;;20.48;5.15;;;14.50;99.90;;;;;;5055989;28;20507;-93
2022/10/02 03:33:59;;;;;;;16.83;4.70;;;14.50;99.90;;;;;;5055757;28;20033;-94
2022/10/02 03:36:26;;;;;;;20.63;4.57;;;14.50;99.90;;;;;;5055796;28;20028;-93
2022/10/02 03:38:55;;;;;;;22.75;4.90;;;14.50;99.90;;;;;;5056389;28;20013;-92
2022/10/02 03:41:20;;;;;;;15.85;4.20;;;14.50;99.90;;;;;;5039444;28;20369;-94
2022/10/02 03:43:46;;;;;;;24.02;5.22;;;14.50;99.90;;;;;;5055276;28;20032;-92
2022/10/02 03:46:12;;;;;;;24.27;5.45;;;14.50;99.90;;;;;;5038617;28;20037;-93
2022/10/02 03:48:37;;;;;;;20.20;4.05;;;14.50;99.90;;;;;;5056313;28;20028;-94
2022/10/02 03:51:03;;;;;;;20.75;5.25;;;14.50;99.90;;;;;;5055306;28;20048;-93
2022/10/02 03:53:33;;;;;;;16.27;4.45;;;14.40;99.90;;;;;;5055317;28;20101;-92
2022/10/02 03:56:25;;;;;;;21.85;4.82;;;14.40;99.90;;;;;;5038901;28;20477;-92
2022/10/02 03:58:54;;;;;;;20.58;4.43;;;14.40;99.90;;;;;;5055017;28;20032;-92
2022/10/02 04:01:25;;;;;;;23.00;4.57;;;14.40;99.90;;;;;;5054956;28;20444;-90
2022/10/02 04:04:12;;;;;;;27.77;5.95;;;14.40;99.90;;;;;;5055586;28;20048;-89
2022/10/02 04:09:44;;;;;;;21.98;4.35;;;14.40;99.90;;;;;;5054250;28;20087;-94
2022/10/02 04:12:15;;;;;;;24.23;5.25;;;14.30;99.90;;;;;;5055015;28;20032;-94
2022/10/02 04:14:53;;;;;;;22.60;4.32;;;14.30;99.90;;;;;;5055110;28;20025;-93
2022/10/02 04:17:26;;;;;;;17.65;4.45;;;14.30;99.90;;;;;;5055063;28;20036;-94
2022/10/02 04:19:58;;;;;;;26.52;5.18;;;14.30;99.90;;;;;;5054948;28;20052;-94
2022/10/02 04:22:30;;;;;;;22.77;4.55;;;14.30;99.90;;;;;;5056361;28;20017;-93
2022/10/02 04:25:17;;;;;;;24.70;4.70;;;14.30;99.90;;;;;;5063334;28;20039;-93
2022/10/02 04:27:46;;;;;;;25.38;5.03;;;14.30;99.90;;;;;;5061603;28;20031;-93
2022/10/02 04:30:15;;;;;;;23.50;4.75;;;14.30;99.90;;;;;;5055250;28;20025;-94
2022/10/02 04:32:41;;;;;;;21.38;4.50;;;14.30;99.90;;;;;;5055768;28;20462;-93
2022/10/02 04:35:15;;;;;;;26.58;5.15;;;14.30;99.90;;;;;;5037603;28;20029;-94
2022/10/02 04:38:15;;;;;;;27.58;6.10;;;14.30;99.90;;;;;;5054611;28;20078;-94
2022/10/02 04:41:11;;;;;;;29.92;6.13;;;14.30;99.90;;;;;;5053320;28;20479;-93
2022/10/02 04:43:46;;;;;;;34.50;6.03;;;14.30;99.90;;;;;;5049282;28;20033;-95
2022/10/02 04:46:50;;;;;;;29.92;6.18;;;14.30;99.90;;;;;;5054530;28;20404;-93
2022/10/02 04:49:36;;;;;;;23.48;5.60;;;14.30;99.90;;;;;;5054276;28;20435;-93
2022/10/02 04:52:19;;;;;;;23.92;5.38;;;14.30;99.90;;;;;;5054122;28;20029;-94
2022/10/02 04:54:55;;;;;;;21.98;4.88;;;14.30;99.90;;;;;;5054349;28;20049;-94
2022/10/02 04:57:20;;;;;;;21.08;4.80;;;14.30;99.90;;;;;;5055167;28;20036;-93
2022/10/02 04:59:49;;;;;;;23.98;5.47;;;14.30;99.90;;;;;;5053821;28;20033;-94
2022/10/02 05:02:38;;;;;;;26.15;5.13;;;14.40;99.90;;;;;;5053958;28;20105;-94
2022/10/02 05:05:09;;;;;;;24.70;5.03;;;14.40;99.90;;;;;;5054216;28;20099;-94
2022/10/02 05:07:44;;;;;;;23.95;5.55;;;14.40;99.90;;;;;;5054443;28;20120;-93
2022/10/02 05:10:42;;;;;;;29.70;5.97;;;14.40;99.90;;;;;;5054281;28;20021;-95
2022/10/02 05:13:35;;;;;;;20.38;4.78;;;14.40;99.90;;;;;;5054202;28;20032;-93
2022/10/02 05:16:13;;;;;;;26.92;5.13;;;14.30;99.90;;;;;;5053747;28;20033;-92
2022/10/02 05:19:13;;;;;;;25.80;5.07;;;14.30;99.90;;;;;;5053981;28;20477;-93
2022/10/02 05:21:53;;;;;;;27.40;4.75;;;14.30;99.90;;;;;;5053689;28;20021;-93
2022/10/02 05:24:39;;;;;;;27.40;5.22;;;14.30;99.90;;;;;;5054060;28;20025;-93
2022/10/02 05:27:17;;;;;;;29.42;5.78;;;14.30;99.90;;;;;;5053983;28;20028;-93
2022/10/02 05:30:15;;;;;;;21.23;4.65;;;14.20;99.90;;;;;;5055656;28;20029;-94
2022/10/02 05:33:12;;;;;;;21.67;5.60;;;14.20;99.90;;;;;;5002389;28;20045;-94
2022/10/02 05:35:43;;;;;;;23.42;4.65;;;14.20;99.90;;;;;;5053829;28;20029;-94
2022/10/02 05:38:26;;;;;;;17.88;4.32;;;14.20;99.90;;;;;;5053750;28;20025;-93
2022/10/02 05:41:18;;;;;;;24.80;4.85;;;14.20;99.90;;;;;;5053990;28;20108;-93
2022/10/02 05:44:05;;;;;;;22.90;5.15;;;14.20;99.90;;;;;;5055069;28;20021;-92
2022/10/02 05:46:40;;;;;;;18.15;4.30;;;14.20;99.90;;;;;;5053343;28;20021;-93
2022/10/02 05:49:19;;;;;;;23.73;5.70;;;14.20;99.90;;;;;;5053644;28;20029;-93
2022/10/02 05:52:10;;;;;;;25.08;4.35;;;14.20;99.90;;;;;;5053940;28;20028;-93
2022/10/02 05:55:01;;;;;;;22.08;4.63;;;14.20;99.90;;;;;;5054043;28;20092;-93
2022/10/02 05:57:40;;;;;;;21.65;4.10;;;14.20;99.90;;;;;;5053633;28;20120;-93
2022/10/02 06:00:08;;;;;;;21.63;4.72;;;14.20;99.90;;;;;;5053240;28;20021;-93
2022/10/02 06:03:08;;;;;;;25.75;5.22;;;14.20;99.90;;;;;;5053220;28;20059;-93
2022/10/02 06:05:40;;;;;;;21.27;4.05;;;14.20;99.90;;;;;;5034297;28;20052;-93
2022/10/02 06:08:13;;;;;;;24.83;4.30;;;14.20;99.90;;;;;;5054565;28;20049;-94
2022/10/02 06:10:47;;;;;;;;;;;14.20;99.90;;;;;;5060483;28;20483;-94
2022/10/02 06:13:35;;;;;;;20.25;4.20;;;14.20;99.90;;;;;;5071385;28;19905;-94
2022/10/02 06:16:20;;;;;;;20.40;4.07;;;14.20;99.90;;;;;;5059398;28;20120;-95
2022/10/02 06:18:53;;;;;;;20.75;4.53;;;14.20;99.90;;;;;;5057958;28;20033;-93
2022/10/02 06:21:46;;;;;;;17.48;3.75;;;14.20;99.90;;;;;;5057672;28;20021;-93
2022/10/02 06:24:38;;;;;;;27.60;4.32;;;14.20;99.90;;;;;;5057777;28;20060;-94
2022/10/02 06:27:14;;;;;;;18.98;4.20;;;14.20;99.90;;;;;;5049517;28;20028;-93
2022/10/02 06:30:01;;;;;;;20.30;4.30;;;14.30;99.90;;;;;;5057412;28;20021;-94
2022/10/02 06:32:32;;;;;;;17.27;4.47;;;14.30;99.90;;;;;;5057128;28;20107;-93
2022/10/02 06:34:58;;;;;;;18.08;4.40;;;14.30;99.90;;;;;;5066633;28;20029;-93
2022/10/02 06:38:06;;;;;;;14.23;3.47;;;14.30;99.90;;;;;;5050457;28;20124;-94
2022/10/02 06:40:59;;;;;;;23.50;3.95;;;14.40;99.90;;;;;;5001115;28;20030;-92
2022/10/02 06:43:53;;;;;;;15.50;4.25;;;14.40;99.90;;;;;;5057100;28;20051;-93
2022/10/02 06:46:54;;;;;;;18.42;4.13;;;14.40;99.90;;;;;;5058183;28;20342;-93
2022/10/02 06:49:30;;;;;;;16.50;3.78;;;14.40;99.90;;;;;;5034697;28;20033;-94
2022/10/02 06:51:55;;;;;;;17.33;4.43;;;14.40;99.90;;;;;;5056725;28;20063;-93
2022/10/02 06:55:00;;;;;;;24.55;5.13;;;14.40;99.90;;;;;;5056671;28;20060;-93
2022/10/02 06:57:47;;;;;;;14.52;4.38;;;14.40;99.90;;;;;;5056105;28;20037;-92
2022/10/02 07:00:17;;;;;;;19.58;4.70;;;14.40;99.90;;;;;;5056868;28;20473;-93
2022/10/02 07:03:15;;;;;;;21.95;5.18;;;14.40;99.90;;;;;;5056545;28;20032;-93
2022/10/02 07:05:53;;;;;;;20.58;4.28;;;14.40;99.90;;;;;;5056453;28;20477;-94
2022/10/02 07:08:50;;;;;;;18.75;4.28;;;14.40;99.90;;;;;;5057299;28;20090;-93
2022/10/02 07:11:31;;;;;;;20.42;4.47;;;14.40;99.90;;;;;;5055888;28;20527;-92
2022/10/02 07:14:09;;;;;;;22.58;5.05;;;14.50;99.90;;;;;;5061957;28;20048;-91
2022/10/02 07:16:40;;;;;;;21.08;5.00;;;14.50;99.90;;;;;;5056430;28;20025;-93
2022/10/02 07:19:40;;;;;;;15.70;3.97;;;14.50;99.90;;;;;;5056315;28;20029;-93
2022/10/02 07:22:29;;;;;;;18.58;4.25;;;14.50;99.90;;;;;;5040696;28;20033;-92
2022/10/02 07:25:21;;;;;;;17.90;4.10;;;14.50;99.90;;;;;;5057057;28;20032;-94
2022/10/02 07:28:04;;;;;;;18.20;4.50;;;14.50;99.90;;;;;;5055335;28;20037;-92
2022/10/02 07:30:54;;;;;;;22.95;5.53;;;14.50;99.90;;;;;;5057815;28;20049;-93
2022/10/02 07:33:49;;;;;;;16.95;4.53;;;14.60;99.90;;;;;;5055287;28;20051;-92
2022/10/02 07:36:35;;;;;;;19.10;4.68;;;14.60;99.90;;;;;;5055908;28;20029;-92
2022/10/02 07:39:05;;;;;;;16.70;4.53;;;14.70;99.90;;;;;;5055183;28;20029;-93
2022/10/02 07:41:30;;;;;;;16.83;4.35;;;14.70;99.90;;;;;;5056583;28;20025;-93
2022/10/02 07:44:12;;;;;;;16.83;4.30;;;14.70;99.90;;;;;;5055733;28;20029;-91
2022/10/02 07:46:57;;;;;;;20.33;5.22;;;14.80;99.90;;;;;;5055347;28;20017;-91
2022/10/02 07:50:02;;;;;;;21.08;4.15;;;14.80;99.90;;;;;;5055543;28;20532;-91
2022/10/02 07:52:46;;;;;;;18.17;4.22;;;14.90;99.90;;;;;;5056393;28;20029;-91
2022/10/02 07:55:22;;;;;;;14.80;4.47;;;14.90;99.90;;;;;;5056183;28;20029;-91
2022/10/02 07:58:10;;;;;;;22.05;4.20;;;14.90;99.90;;;;;;5056317;28;20029;-91
2022/10/02 08:00:42;;;;;;;15.07;3.90;;;14.90;99.90;;;;;;5056166;28;20068;-90
2022/10/02 08:03:15;;;;;;;17.00;4.80;;;15.00;99.90;;;;;;5055348;28;20021;-91
2022/10/02 08:06:05;;;;;;;27.30;5.53;;;15.00;99.90;;;;;;5056218;28;20052;-95
2022/10/02 08:11:56;;;;;;;20.85;4.72;;;15.10;99.90;;;;;;5058382;28;20048;-94
2022/10/02 08:14:31;;;;;;;20.88;4.32;;;15.10;99.90;;;;;;5057141;28;20394;-96
2022/10/02 08:17:01;;;;;;;17.23;4.15;;;15.10;99.90;;;;;;5056863;28;20076;-94
2022/10/02 08:19:48;;;;;;;17.80;4.07;;;15.10;99.90;;;;;;5054980;28;20025;-94
2022/10/02 08:23:06;;;;;;;;;;;;;;;;;;;;;
2022/10/02 08:25:45;;;;;;;21.83;3.97;;;15.20;99.90;;;;;;5017705;28;20109;-95
2022/10/02 08:28:33;;;;;;;20.17;4.10;;;15.30;99.90;;;;;;5267241;22;20064;-96
2022/10/02 08:31:18;;;;;;;19.25;4.10;;;15.30;99.90;;;;;;5057914;28;20063;-96
2022/10/02 08:39:42;;;;;;;14.90;3.88;;;15.40;99.90;;;;;;4998197;28;20054;-96
2022/10/02 08:42:29;;;;;;;17.92;3.47;;;15.50;99.90;;;;;;4936601;29;20035;-93
2022/10/02 08:45:16;;;;;;;18.98;4.70;;;15.40;99.90;;;;;;4936223;29;20123;-90
2022/10/02 08:48:05;;;;;;;22.20;3.90;;;15.50;99.90;;;;;;4995804;28;20035;-90
2022/10/02 08:50:58;;;;;;;17.50;3.85;;;15.50;99.90;;;;;;5013876;28;20031;-90
2022/10/02 08:54:01;;;;;;;16.92;3.45;;;15.60;99.90;;;;;;4999427;28;20030;-90
2022/10/02 08:57:05;;;;;;;16.33;3.25;;;15.60;99.90;;;;;;4994003;28;20065;-93
2022/10/02 08:59:52;;;;;;;14.18;3.42;;;15.60;99.90;;;;;;4994892;28;20469;-91
2022/10/02 09:02:30;;;;;;;17.50;3.50;;;15.70;99.90;;;;;;4995400;28;20045;-90
2022/10/02 09:05:36;;;;;;;13.80;3.45;;;15.70;99.90;;;;;;5000033;28;20105;-91
2022/10/02 09:08:25;;;;;;;16.67;3.30;;;15.70;99.90;;;;;;4973795;28;20133;-89
2022/10/02 09:11:00;;;;;;;21.30;4.07;;;15.80;99.90;;;;;;4996112;28;20023;-89
2022/10/02 09:13:39;;;;;;;13.18;3.10;;;15.80;99.90;;;;;;5010517;28;20101;-89
2022/10/02 09:16:09;;;;;;;15.48;3.25;;;15.80;99.90;;;;;;5010571;28;20026;-89
2022/10/02 09:18:54;;;;;;;19.47;3.57;;;15.90;99.90;;;;;;5006729;28;20106;-88
2022/10/02 09:21:29;;;;;;;19.27;3.45;;;15.90;99.90;;;;;;4990593;28;20030;-89
2022/10/02 09:24:03;;;;;;;12.23;2.80;;;16.00;99.90;;;;;;4990565;28;20034;-88
2022/10/02 09:26:33;;;;;;;20.52;3.25;;;16.00;99.90;;;;;;4975232;28;20049;-89
2022/10/02 09:29:20;;;;;;;15.98;2.90;;;16.00;99.90;;;;;;4992619;28;20517;-88
2022/10/02 09:32:04;;;;;;;12.98;3.22;;;16.10;99.90;;;;;;4990171;28;20113;-88
2022/10/02 09:35:07;;;;;;;17.17;3.35;;;16.10;99.90;;;;;;5013075;28;20125;-88
2022/10/02 09:38:07;;;;;;;17.25;2.90;;;16.20;99.90;;;;;;5009425;28;20177;-88
2022/10/02 09:40:52;;;;;;;17.05;3.35;;;16.20;99.90;;;;;;4992783;28;20022;-88
2022/10/02 09:43:54;;;;;;;14.15;3.53;;;16.30;99.90;;;;;;4994353;28;20018;-90
2022/10/02 09:46:49;;;;;;;15.80;2.67;;;16.30;99.90;;;;;;4993688;28;20090;-88
2022/10/02 09:49:42;;;;;;;15.75;2.67;;;16.30;99.90;;;;;;4994479;28;20026;-90
2022/10/02 09:52:08;;;;;;;14.27;2.70;;;16.40;99.90;;;;;;5009599;28;20030;-89
2022/10/02 09:54:58;;;;;;;14.48;2.55;;;16.50;99.90;;;;;;5009853;28;20129;-90
2022/10/02 09:57:44;;;;;;;17.10;2.92;;;16.50;99.90;;;;;;4993826;28;20054;-89
2022/10/02 10:00:36;;;;;;;13.07;2.80;;;16.60;99.90;;;;;;5009754;28;20022;-88
2022/10/02 10:03:45;;;;;;;8.98;2.30;;;16.60;99.90;;;;;;5016145;28;20037;-89
2022/10/02 10:06:49;;;;;;;11.93;2.60;;;16.70;99.90;;;;;;5015405;28;20352;-88
2022/10/02 10:09:42;;;;;;;15.80;3.28;;;16.70;99.90;;;;;;4969042;28;20159;-89
2022/10/02 10:12:48;;;;;;;15.15;3.38;;;16.80;99.90;;;;;;5024746;28;20026;-89
2022/10/02 10:15:32;;;;;;;13.82;2.70;;;16.80;99.90;;;;;;4993687;28;20085;-88
2022/10/02 10:18:29;;;;;;;14.82;2.72;;;16.90;99.90;;;;;;5008989;28;20054;-90
2022/10/02 10:21:16;;;;;;;13.10;2.50;;;16.90;99.90;;;;;;4993132;28;20113;-91
2022/10/02 10:24:02;;;;;;;10.35;2.38;;;17.00;99.90;;;;;;5017457;28;20026;-89
2022/10/02 10:26:42;;;;;;;11.07;2.42;;;17.10;99.90;;;;;;4986676;28;20022;-90
2022/10/02 10:29:20;;;;;;;11.23;2.50;;;17.10;99.90;;;;;;4988598;28;20026;-91
2022/10/02 10:32:21;;;;;;;10.70;2.35;;;17.10;99.90;;;;;;5017547;28;20085;-90
2022/10/02 10:35:05;;;;;;;12.18;2.47;;;17.20;99.90;;;;;;4966857;28;20049;-90
2022/10/02 10:40:45;;;;;;;15.75;4.55;;;17.20;99.90;;;;;;4993863;28;20044;-89
2022/10/02 10:43:11;;;;;;;14.05;3.58;;;17.20;99.90;;;;;;4994262;28;20027;-88
2022/10/02 10:46:06;;;;;;;18.70;5.00;;;17.20;99.90;;;;;;5009269;28;20368;-89
2022/10/02 10:49:01;;;;;;;21.85;6.15;;;17.20;99.90;;;;;;4992911;28;20034;-88
2022/10/02 10:51:58;;;;;;;18.20;5.40;;;17.30;99.90;;;;;;4993054;28;20030;-89
2022/10/02 10:55:05;;;;;;;18.30;3.78;;;17.20;99.90;;;;;;4989430;28;20065;-88
2022/10/02 10:57:45;;;;;;;9.38;2.63;;;17.30;99.90;;;;;;4937367;29;20023;-88
2022/10/02 11:00:19;;;;;;;10.00;2.57;;;17.30;99.90;;;;;;4989926;28;20030;-89
2022/10/02 11:03:18;;;;;;;12.35;3.35;;;17.30;99.90;;;;;;4996283;28;20084;-89
2022/10/02 11:06:11;;;;;;;11.20;1.80;;;17.30;99.90;;;;;;4997326;28;20176;-89
2022/10/02 11:09:08;;;;;;;11.93;3.17;;;17.30;99.90;;;;;;5012715;28;20057;-88
2022/10/02 11:11:43;;;;;;;19.98;5.32;;;17.30;99.90;;;;;;4997428;28;20085;-89
2022/10/02 11:14:40;;;;;;;16.42;4.47;;;17.30;99.90;;;;;;5012360;28;20030;-88
2022/10/02 11:17:27;;;;;;;27.27;4.95;;;17.40;99.90;;;;;;5012258;28;20463;-88
2022/10/02 11:20:24;;;;;;;21.15;3.92;;;17.40;99.90;;;;;;5012150;28;20030;-88
2022/10/02 11:22:49;;;;;;;13.88;3.75;;;17.40;99.90;;;;;;4995964;28;20030;-88
2022/10/02 11:25:15;;;;;;;13.95;3.05;;;17.40;99.90;;;;;;5015578;28;20363;-88
2022/10/02 11:27:56;;;;;;;11.88;2.88;;;17.40;99.90;;;;;;5013628;28;20180;-89
2022/10/02 11:30:42;;;;;;;12.98;2.53;;;17.50;99.90;;;;;;5012552;28;20034;-89
2022/10/02 11:33:23;;;;;;;10.63;2.22;;;17.50;99.90;;;;;;5013084;28;20471;-93
2022/10/02 11:36:13;;;;;;;11.23;2.40;;;17.50;99.90;;;;;;5021700;28;20109;-92
2022/10/02 11:39:09;;;;;;;8.90;1.98;;;17.50;99.90;;;;;;4998895;28;20049;-92
2022/10/02 11:42:11;;;;;;;11.57;2.10;;;17.50;99.90;;;;;;4998808;28;20031;-92
2022/10/02 11:44:40;;;;;;;12.88;2.88;;;17.50;99.90;;;;;;4996891;28;20073;-93
2022/10/02 11:48:08;;;;;;;12.70;2.10;;;17.50;99.90;;;;;;5012330;28;20026;-89
2022/10/02 11:51:01;;;;;;;15.73;3.95;;;17.50;99.90;;;;;;4955991;29;20035;-89
2022/10/02 11:54:05;;;;;;;8.55;2.10;;;17.50;99.90;;;;;;4995206;28;20040;-88
2022/10/02 11:57:13;;;;;;;7.13;1.95;;;17.50;99.90;;;;;;4995474;28;20038;-90
2022/10/02 12:00:03;;;;;;;13.15;2.60;;;17.60;99.90;;;;;;4968071;28;20073;-89
2022/10/02 12:03:14;;;;;;;13.23;2.30;;;17.60;99.90;;;;;;5011910;28;20018;-89
2022/10/02 12:06:16;;;;;;;9.38;2.08;;;17.70;99.90;;;;;;4965539;28;20125;-90
2022/10/02 12:09:13;;;;;;;9.30;2.65;;;17.70;99.90;;;;;;4995343;28;20026;-90
2022/10/02 12:12:05;;;;;;;9.63;2.50;;;17.80;99.90;;;;;;4996555;28;20022;-89
2022/10/02 12:14:56;;;;;;;13.75;2.30;;;17.80;99.90;;;;;;4995466;28;20030;-90
2022/10/02 12:17:43;;;;;;;9.13;2.08;;;17.90;99.90;;;;;;4996496;28;20062;-90
2022/10/02 12:29:13;;;;;;;11.10;2.47;;;18.10;99.90;;;;;;4996232;28;20085;-90
2022/10/02 12:32:14;;;;;;;8.90;1.98;;;18.10;99.90;;;;;;4995291;28;20065;-89
2022/10/02 12:35:21;;;;;;;12.02;1.70;;;18.10;99.90;;;;;;4981706;28;20077;-90
2022/10/02 12:38:15;;;;;;;10.93;2.20;;;18.20;99.90;;;;;;4994764;28;20050;-89
2022/10/02 12:41:22;;;;;;;12.25;2.70;;;18.20;99.90;;;;;;5011241;28;20463;-89
2022/10/02 12:44:06;;;;;;;9.73;2.03;;;18.20;99.90;;;;;;4994256;28;20034;-88
2022/10/02 12:46:56;;;;;;;10.65;2.10;;;18.30;99.90;;;;;;5011048;28;20033;-90
2022/10/02 12:49:39;;;;;;;7.13;1.88;;;18.30;99.90;;;;;;5011222;28;20034;-90
2022/10/02 12:52:08;;;;;;;6.28;1.67;;;18.40;99.90;;;;;;4995657;28;20022;-89
2022/10/02 12:54:46;;;;;;;9.32;2.03;;;18.40;99.90;;;;;;4995665;28;20117;-89
2022/10/02 13:00:15;;;;;;;6.93;1.63;;;18.50;99.90;;;;;;4995248;28;20120;-90
2022/10/02 13:03:18;;;;;;;9.35;2.88;;;18.60;99.90;;;;;;4994445;28;20033;-89
2022/10/02 13:06:13;;;;;;;6.45;1.80;;;18.60;99.90;;;;;;4995484;28;20022;-91
2022/10/02 13:09:07;;;;;;;6.85;1.70;;;18.70;99.90;;;;;;4983874;28;20475;-90
2022/10/02 13:11:57;;;;;;;9.90;3.17;;;18.60;99.90;;;;;;5010918;28;20023;-89
2022/10/02 13:15:02;;;;;;;9.97;1.87;;;18.60;99.90;;;;;;5010235;28;20089;-89
2022/10/02 13:17:57;;;;;;;9.80;2.05;;;18.60;99.90;;;;;;4994925;28;20015;-87
2022/10/02 13:20:27;;;;;;;7.53;1.70;;;18.60;99.90;;;;;;4994003;28;20026;-90
2022/10/02 13:23:11;;;;;;;9.48;3.47;;;18.60;99.90;;;;;;5009961;28;20031;-90
2022/10/02 13:25:49;;;;;;;12.88;2.50;;;18.60;99.90;;;;;;5010584;28;20434;-92
2022/10/02 13:32:03;;;;;;;11.00;2.20;;;18.60;99.90;;;;;;4995994;28;20096;-94
2022/10/02 13:34:51;;;;;;;7.65;1.92;;;18.70;99.90;;;;;;5010683;28;20037;-91
2022/10/02 13:41:18;;;;;;;14.32;3.50;;;18.70;99.90;;;;;;4995734;28;20126;-93
2022/10/02 13:43:55;;;;;;;6.75;1.77;;;18.80;99.90;;;;;;4994190;28;20023;-88
2022/10/02 13:46:40;;;;;;;14.60;2.25;;;18.80;99.90;;;;;;4994961;28;20023;-89
2022/10/02 13:49:11;;;;;;;7.82;1.80;;;18.90;99.90;;;;;;4992752;28;20022;-89
2022/10/02 13:51:49;;;;;;;10.20;2.13;;;18.90;99.90;;;;;;5009186;28;20026;-88
2022/10/02 13:54:53;;;;;;;7.25;1.48;;;19.00;99.90;;;;;;5011677;28;20054;-92
2022/10/02 13:57:42;;;;;;;8.18;2.08;;;19.00;99.90;;;;;;5017103;28;20023;-87
2022/10/02 14:00:13;;;;;;;6.70;1.90;;;19.10;99.90;;;;;;4999296;28;20033;-88
2022/10/02 14:02:58;;;;;;;10.88;2.80;;;19.10;99.90;;;;;;4995304;28;20430;-88
2022/10/02 14:05:40;;;;;;;6.50;1.70;;;19.10;99.90;;;;;;4994914;28;20034;-88
2022/10/02 14:08:17;;;;;;;9.73;1.58;;;19.10;99.90;;;;;;4993755;28;20037;-87
2022/10/02 14:10:58;;;;;;;7.32;1.67;;;19.20;99.90;;;;;;4993830;28;20467;-88
2022/10/02 14:13:38;;;;;;;8.38;1.95;;;19.20;99.90;;;;;;5009773;28;20032;-88
2022/10/02 14:16:49;;;;;;;11.52;2.67;;;19.20;99.90;;;;;;5009805;28;20104;-88
2022/10/02 14:19:16;;;;;;;9.23;1.70;;;19.20;99.90;;;;;;4977388;28;20089;-88
2022/10/02 14:21:50;;;;;;;11.25;1.80;;;19.20;99.90;;;;;;5010086;28;20030;-89
2022/10/02 14:24:59;;;;;;;7.50;1.83;;;19.30;99.90;;;;;;5009535;28;20029;-89
2022/10/02 14:27:52;;;;;;;7.63;1.90;;;19.30;99.90;;;;;;4987994;28;20046;-88
2022/10/02 14:30:26;;;;;;;8.38;1.77;;;19.30;99.90;;;;;;4994633;28;20018;-89
2022/10/02 14:33:04;;;;;;;10.30;2.15;;;19.30;99.90;;;;;;4997433;28;20030;-88
2022/10/02 14:35:39;;;;;;;9.35;2.00;;;19.30;99.90;;;;;;5013219;28;20034;-88